Time;durP1;ratioP1;P1;durP2;ratioP2;P2;SDS_P1;SDS_P2;PMS_P1;PMS_P2;Temp;Humidity;BMP_temperature;BMP_pressure;BME280_temperature;BME280_humidity;BME280_pressure;Samples;Min_cycle;Max_cycle;Signal;HPM_P1;HPM_P2
2023/08/28 00:02:10;;;;;;;5.03;4.28;;;12.70;99.90;;;;;;4994426;28;20023;-89
2023/08/28 00:04:36;;;;;;;7.38;4.68;;;12.70;99.90;;;;;;4986911;28;20510;-89
2023/08/28 00:07:01;;;;;;;8.70;4.82;;;12.60;99.90;;;;;;4991754;28;20121;-89
2023/08/28 00:09:27;;;;;;;6.88;4.25;;;12.60;99.90;;;;;;4995282;28;20113;-89
2023/08/28 00:11:55;;;;;;;13.52;5.30;;;12.60;99.90;;;;;;4979478;28;20027;-89
2023/08/28 00:14:23;;;;;;;7.47;5.32;;;12.60;99.90;;;;;;4994638;28;20064;-89
2023/08/28 00:16:48;;;;;;;9.00;5.13;;;12.60;99.90;;;;;;4995265;28;20098;-89
2023/08/28 00:19:14;;;;;;;9.70;5.72;;;12.60;99.90;;;;;;4995053;28;20061;-89
2023/08/28 00:21:40;;;;;;;8.38;4.75;;;12.60;99.90;;;;;;4995071;28;20081;-89
2023/08/28 00:24:06;;;;;;;7.38;4.88;;;12.60;99.90;;;;;;4994419;28;20026;-89
2023/08/28 00:26:32;;;;;;;9.57;4.45;;;12.60;99.90;;;;;;4994657;28;20032;-89
2023/08/28 00:28:57;;;;;;;5.28;4.40;;;12.60;99.90;;;;;;4991844;28;20110;-89
2023/08/28 00:31:23;;;;;;;5.95;4.18;;;12.50;99.90;;;;;;5006314;28;20057;-90
2023/08/28 00:33:48;;;;;;;6.47;4.43;;;12.50;99.90;;;;;;4990354;28;20031;-89
2023/08/28 00:36:15;;;;;;;9.35;4.47;;;12.50;99.90;;;;;;4982178;28;20483;-89
2023/08/28 00:38:41;;;;;;;8.57;4.50;;;12.50;99.90;;;;;;4993581;28;20427;-89
2023/08/28 00:41:07;;;;;;;7.40;4.88;;;12.50;99.90;;;;;;4995244;28;20034;-89
2023/08/28 00:43:33;;;;;;;6.63;4.55;;;12.50;99.90;;;;;;4991136;28;20443;-89
2023/08/28 00:45:59;;;;;;;6.95;4.35;;;12.50;99.90;;;;;;4993428;28;20475;-90
2023/08/28 00:48:24;;;;;;;5.53;3.88;;;12.40;99.90;;;;;;4994422;28;20479;-89
2023/08/28 00:50:51;;;;;;;7.75;4.95;;;12.40;99.90;;;;;;4993832;28;20074;-89
2023/08/28 00:53:17;;;;;;;11.40;5.45;;;12.40;99.90;;;;;;4994812;28;20018;-89
2023/08/28 00:55:43;;;;;;;7.05;5.18;;;12.40;99.90;;;;;;4994209;28;20048;-90
2023/08/28 00:58:09;;;;;;;6.80;4.95;;;12.40;99.90;;;;;;4993859;28;20034;-89
2023/08/28 01:00:34;;;;;;;6.90;4.75;;;12.40;99.90;;;;;;4994799;28;20042;-89
2023/08/28 01:03:00;;;;;;;6.47;4.13;;;12.30;99.90;;;;;;4993220;28;20057;-89
2023/08/28 01:05:39;;;;;;;7.28;4.47;;;12.30;99.90;;;;;;4995744;28;20030;-90
2023/08/28 01:08:31;;;;;;;12.02;5.40;;;12.40;99.90;;;;;;4994392;28;20112;-89
2023/08/28 01:11:25;;;;;;;11.00;5.40;;;12.40;99.90;;;;;;4991392;28;20062;-89
2023/08/28 01:13:59;;;;;;;5.28;4.65;;;12.40;99.90;;;;;;4990817;28;20035;-89
2023/08/28 01:16:27;;;;;;;7.40;5.82;;;12.40;99.90;;;;;;5000140;28;20044;-89
2023/08/28 01:18:53;;;;;;;7.55;5.03;;;12.40;99.90;;;;;;4993843;28;20027;-90
2023/08/28 01:21:20;;;;;;;6.97;5.55;;;12.40;99.90;;;;;;4993190;28;20026;-89
2023/08/28 01:24:08;;;;;;;11.35;6.47;;;12.30;99.90;;;;;;4993936;28;20126;-89
2023/08/28 01:26:34;;;;;;;7.50;5.97;;;12.40;99.90;;;;;;5006536;28;20026;-89
2023/08/28 01:28:59;;;;;;;9.90;6.57;;;12.30;99.90;;;;;;4988857;28;20090;-89
2023/08/28 01:31:25;;;;;;;8.75;5.80;;;12.30;99.90;;;;;;4992962;28;20226;-90
2023/08/28 01:33:51;;;;;;;7.47;6.43;;;12.30;99.90;;;;;;4992808;28;20041;-89
2023/08/28 01:36:30;;;;;;;8.77;6.18;;;12.20;99.90;;;;;;4997512;28;20483;-89
2023/08/28 01:39:04;;;;;;;9.80;6.90;;;12.20;99.90;;;;;;5001003;28;20045;-90
2023/08/28 01:41:32;;;;;;;9.40;7.07;;;12.10;99.90;;;;;;5006694;28;20080;-90
2023/08/28 01:44:01;;;;;;;9.88;7.68;;;12.20;99.90;;;;;;4993928;28;20032;-90
2023/08/28 01:46:28;;;;;;;12.95;6.75;;;12.10;99.90;;;;;;4989529;28;20030;-89
2023/08/28 01:48:54;;;;;;;10.40;7.32;;;12.10;99.90;;;;;;4997520;28;20053;-89
2023/08/28 01:51:23;;;;;;;9.25;7.82;;;12.10;99.90;;;;;;4976871;28;20054;-90
2023/08/28 01:53:49;;;;;;;10.27;7.55;;;12.10;99.90;;;;;;4993524;28;20034;-89
2023/08/28 01:56:18;;;;;;;11.00;7.53;;;12.00;99.90;;;;;;4992621;28;20076;-90
2023/08/28 01:58:50;;;;;;;13.48;8.00;;;12.00;99.90;;;;;;4994459;28;20037;-89
2023/08/28 02:01:16;;;;;;;8.35;7.45;;;12.00;99.90;;;;;;5005670;28;20083;-89
2023/08/28 02:03:41;;;;;;;10.95;8.65;;;12.00;99.90;;;;;;4993977;28;20360;-89
2023/08/28 02:06:08;;;;;;;9.65;7.70;;;11.90;99.90;;;;;;4996394;28;20026;-90
2023/08/28 02:08:34;;;;;;;13.35;7.97;;;11.90;99.90;;;;;;4994234;28;20112;-89
2023/08/28 02:11:00;;;;;;;9.45;8.30;;;11.90;99.90;;;;;;5004542;28;20069;-89
2023/08/28 02:13:25;;;;;;;11.90;8.55;;;11.80;99.90;;;;;;4993645;28;20471;-89
2023/08/28 02:15:51;;;;;;;12.18;8.30;;;11.80;99.90;;;;;;4992668;28;20575;-89
2023/08/28 02:18:17;;;;;;;12.32;9.38;;;11.80;99.90;;;;;;4993198;28;20058;-89
2023/08/28 02:20:44;;;;;;;11.93;8.65;;;11.70;99.90;;;;;;4984622;28;20031;-89
2023/08/28 02:23:09;;;;;;;9.07;6.07;;;11.70;99.90;;;;;;4992158;28;20026;-90
2023/08/28 02:25:35;;;;;;;32.10;6.38;;;11.70;99.90;;;;;;4977747;28;20447;-89
2023/08/28 02:28:00;;;;;;;5.80;4.50;;;11.60;99.90;;;;;;4992868;28;20224;-89
2023/08/28 02:30:26;;;;;;;5.72;4.05;;;11.60;99.90;;;;;;4992070;28;20073;-90
2023/08/28 02:32:51;;;;;;;8.50;4.95;;;11.50;99.90;;;;;;4992482;28;20467;-89
2023/08/28 02:35:17;;;;;;;6.50;5.30;;;11.40;99.90;;;;;;4993310;28;20030;-89
2023/08/28 02:37:43;;;;;;;10.10;7.03;;;11.40;99.90;;;;;;4992206;28;20026;-89
2023/08/28 02:40:11;;;;;;;11.95;7.53;;;11.30;99.90;;;;;;4992766;28;20045;-90
2023/08/28 02:42:37;;;;;;;10.52;8.13;;;11.30;99.90;;;;;;4992350;28;20022;-90
2023/08/28 02:45:04;;;;;;;13.50;9.63;;;11.30;99.90;;;;;;4992348;28;20438;-90
2023/08/28 02:47:30;;;;;;;12.32;10.35;;;11.40;99.90;;;;;;4992295;28;20022;-90
2023/08/28 02:49:55;;;;;;;15.25;10.00;;;11.30;99.90;;;;;;4994371;28;20124;-90
2023/08/28 02:52:21;;;;;;;15.13;10.35;;;11.30;99.90;;;;;;5005167;28;20027;-90
2023/08/28 02:54:46;;;;;;;13.60;10.48;;;11.30;99.90;;;;;;4991830;28;20134;-90
2023/08/28 02:57:12;;;;;;;15.77;10.32;;;11.30;99.90;;;;;;4989447;28;20034;-90
2023/08/28 02:59:37;;;;;;;11.63;10.43;;;11.40;99.90;;;;;;5000950;28;20043;-89
2023/08/28 03:02:03;;;;;;;17.02;11.50;;;11.30;99.90;;;;;;4993769;28;20023;-89
2023/08/28 03:04:29;;;;;;;17.98;13.02;;;11.40;99.90;;;;;;4991104;28;20117;-90
2023/08/28 03:06:54;;;;;;;17.05;12.20;;;11.40;99.90;;;;;;4991497;28;20042;-90
2023/08/28 03:09:20;;;;;;;15.07;12.48;;;11.40;99.90;;;;;;4991972;28;20045;-90
2023/08/28 03:11:45;;;;;;;18.05;13.50;;;11.40;99.90;;;;;;4981761;28;20483;-90
2023/08/28 03:14:11;;;;;;;16.83;12.85;;;11.40;99.90;;;;;;4983186;28;20041;-89
2023/08/28 03:16:37;;;;;;;22.25;14.20;;;11.40;99.90;;;;;;4992386;28;20056;-90
2023/08/28 03:19:02;;;;;;;18.00;14.23;;;11.50;99.90;;;;;;4981034;28;20121;-89
2023/08/28 03:21:28;;;;;;;18.90;13.77;;;11.40;99.90;;;;;;4983808;28;20057;-89
2023/08/28 03:23:54;;;;;;;19.63;13.75;;;11.40;99.90;;;;;;4991065;28;20121;-89
2023/08/28 03:26:19;;;;;;;15.82;13.75;;;11.40;99.90;;;;;;4996303;28;20037;-89
2023/08/28 03:28:45;;;;;;;18.60;14.90;;;11.50;99.90;;;;;;4998668;28;20027;-90
2023/08/28 03:31:10;;;;;;;17.38;12.65;;;11.40;99.90;;;;;;4996249;28;20022;-90
2023/08/28 03:33:36;;;;;;;16.65;11.93;;;11.40;99.90;;;;;;4992673;28;20038;-90
2023/08/28 03:36:02;;;;;;;17.75;13.07;;;11.40;99.90;;;;;;4985708;28;20081;-89
2023/08/28 03:38:28;;;;;;;15.70;13.23;;;11.30;99.90;;;;;;4998647;28;20065;-90
2023/08/28 03:40:54;;;;;;;15.90;13.18;;;11.30;99.90;;;;;;4996066;28;20544;-90
2023/08/28 03:43:20;;;;;;;16.80;13.20;;;11.20;99.90;;;;;;5006929;28;20033;-90
2023/08/28 03:45:45;;;;;;;16.13;13.02;;;11.20;99.90;;;;;;4997808;28;20031;-90
2023/08/28 03:48:11;;;;;;;11.40;9.82;;;11.20;99.90;;;;;;4998285;28;20057;-90
2023/08/28 03:50:38;;;;;;;16.35;13.07;;;11.20;99.90;;;;;;5015144;28;20045;-90
2023/08/28 03:53:04;;;;;;;14.15;12.35;;;11.20;99.90;;;;;;5000680;28;20032;-90
2023/08/28 03:55:29;;;;;;;17.92;14.40;;;11.20;99.90;;;;;;4998257;28;20427;-90
2023/08/28 03:57:56;;;;;;;18.73;15.05;;;11.10;99.90;;;;;;5006089;28;20435;-89
2023/08/28 04:00:21;;;;;;;17.95;14.10;;;11.20;99.90;;;;;;4997722;28;20046;-89
2023/08/28 04:02:47;;;;;;;17.48;13.82;;;11.20;99.90;;;;;;4997969;28;20049;-90
2023/08/28 04:05:16;;;;;;;20.40;14.18;;;11.20;99.90;;;;;;5006182;28;20050;-89
2023/08/28 04:07:43;;;;;;;17.40;14.30;;;11.20;99.90;;;;;;4997795;28;20042;-90
2023/08/28 04:10:09;;;;;;;17.13;14.95;;;11.20;99.90;;;;;;4997665;28;20073;-90
2023/08/28 04:12:35;;;;;;;15.63;13.48;;;11.20;99.90;;;;;;4998324;28;20403;-90
2023/08/28 04:15:00;;;;;;;13.93;11.73;;;11.20;99.90;;;;;;4986309;28;20019;-90
2023/08/28 04:17:26;;;;;;;73.15;10.02;;;11.20;99.90;;;;;;4996650;28;20037;-89
2023/08/28 04:19:55;;;;;;;10.00;8.68;;;11.20;99.90;;;;;;4994731;28;20475;-90
2023/08/28 04:22:21;;;;;;;16.13;12.80;;;11.10;99.90;;;;;;4982090;28;20457;-90
2023/08/28 04:24:50;;;;;;;19.08;14.60;;;11.20;99.90;;;;;;4994307;28;20073;-90
2023/08/28 04:27:15;;;;;;;23.48;16.35;;;11.20;99.90;;;;;;4998265;28;20098;-90
2023/08/28 04:29:41;;;;;;;22.98;18.13;;;11.30;99.90;;;;;;4997039;28;20038;-90
2023/08/28 04:32:06;;;;;;;26.42;19.63;;;11.30;99.90;;;;;;4997321;28;20034;-90
2023/08/28 04:34:32;;;;;;;27.90;20.77;;;11.40;99.90;;;;;;4997285;28;20466;-90
2023/08/28 04:36:58;;;;;;;26.45;19.55;;;11.60;99.90;;;;;;5008262;28;20433;-90
2023/08/28 04:39:23;;;;;;;25.92;19.40;;;11.60;99.90;;;;;;4990855;28;20030;-90
2023/08/28 04:41:52;;;;;;;25.63;19.85;;;11.60;99.90;;;;;;5010706;28;20069;-90
2023/08/28 04:44:18;;;;;;;28.27;20.88;;;11.70;99.90;;;;;;4993384;28;20054;-90
2023/08/28 04:46:43;;;;;;;26.75;21.58;;;11.80;99.90;;;;;;4994367;28;20116;-90
2023/08/28 04:49:09;;;;;;;33.30;21.90;;;11.80;99.90;;;;;;4995855;28;20026;-90
2023/08/28 04:51:35;;;;;;;33.10;22.23;;;11.80;99.90;;;;;;4993164;28;20023;-90
2023/08/28 04:54:01;;;;;;;30.52;22.85;;;11.90;99.90;;;;;;5008636;28;20121;-90
2023/08/28 04:56:26;;;;;;;26.73;21.88;;;11.90;99.90;;;;;;4994721;28;20050;-90
2023/08/28 04:58:52;;;;;;;27.70;21.85;;;11.90;99.90;;;;;;4990479;28;20031;-90
2023/08/28 05:01:17;;;;;;;27.08;21.35;;;11.90;99.90;;;;;;4991718;28;20037;-90
2023/08/28 05:03:43;;;;;;;36.05;21.48;;;11.90;99.90;;;;;;4994439;28;20073;-91
2023/08/28 05:06:08;;;;;;;27.27;20.67;;;11.90;99.90;;;;;;4978227;28;20085;-90
2023/08/28 05:08:34;;;;;;;29.55;22.38;;;11.80;99.90;;;;;;4979161;28;20019;-91
2023/08/28 05:11:02;;;;;;;31.52;22.45;;;11.80;99.90;;;;;;4989936;28;20035;-90
2023/08/28 05:13:28;;;;;;;32.92;22.85;;;11.90;99.90;;;;;;5008842;28;20030;-89
2023/08/28 05:15:54;;;;;;;32.17;22.45;;;11.90;99.90;;;;;;4989728;28;20549;-90
2023/08/28 05:18:19;;;;;;;30.05;23.70;;;11.90;99.90;;;;;;4987087;28;20278;-89
2023/08/28 05:20:45;;;;;;;33.50;22.52;;;11.90;99.90;;;;;;4990710;28;20042;-90
2023/08/28 05:23:11;;;;;;;30.23;22.23;;;11.90;99.90;;;;;;4989041;28;20116;-90
2023/08/28 05:25:36;;;;;;;24.92;21.77;;;12.00;99.90;;;;;;4989531;28;20109;-90
2023/08/28 05:28:02;;;;;;;28.70;22.65;;;12.00;99.90;;;;;;4992840;28;20529;-91
2023/08/28 05:30:27;;;;;;;24.67;20.73;;;11.90;99.90;;;;;;4991593;28;20034;-90
2023/08/28 05:32:53;;;;;;;30.65;22.05;;;11.90;99.90;;;;;;4992846;28;20030;-90
2023/08/28 05:35:18;;;;;;;29.05;23.15;;;12.00;99.90;;;;;;4992621;28;20030;-91
2023/08/28 05:37:44;;;;;;;29.17;22.45;;;12.00;99.90;;;;;;4993341;28;20390;-90
2023/08/28 05:40:14;;;;;;;31.13;22.48;;;12.00;99.90;;;;;;4994062;28;20513;-91
2023/08/28 05:42:41;;;;;;;34.17;23.65;;;12.00;99.90;;;;;;4994616;28;20026;-90
2023/08/28 05:45:07;;;;;;;27.45;21.83;;;12.00;99.90;;;;;;4986521;28;20038;-90
2023/08/28 05:47:33;;;;;;;29.70;23.02;;;12.00;99.90;;;;;;4993411;28;20036;-89
2023/08/28 05:49:59;;;;;;;31.48;23.13;;;12.00;99.90;;;;;;4989504;28;20023;-88
2023/08/28 05:52:24;;;;;;;26.10;20.67;;;12.00;99.90;;;;;;4988862;28;20091;-89
2023/08/28 05:54:50;;;;;;;26.63;21.58;;;12.00;99.90;;;;;;4991933;28;20506;-91
2023/08/28 05:57:15;;;;;;;25.15;21.95;;;12.00;99.90;;;;;;5005930;28;20325;-90
2023/08/28 05:59:41;;;;;;;28.33;21.40;;;12.00;99.90;;;;;;4993144;28;20034;-89
2023/08/28 06:02:06;;;;;;;26.38;21.92;;;12.10;99.90;;;;;;4990701;28;20045;-89
2023/08/28 06:04:32;;;;;;;31.13;23.65;;;12.10;99.90;;;;;;4997700;28;20042;-90
2023/08/28 06:06:57;;;;;;;28.83;23.10;;;12.20;99.90;;;;;;4994247;28;20033;-90
2023/08/28 06:09:23;;;;;;;31.83;24.25;;;12.30;99.90;;;;;;4992031;28;20026;-90
2023/08/28 06:11:48;;;;;;;30.88;24.40;;;12.40;99.90;;;;;;4992045;28;20029;-89
2023/08/28 06:14:14;;;;;;;35.85;27.88;;;12.60;99.90;;;;;;4992338;28;20034;-90
2023/08/28 06:16:39;;;;;;;33.85;29.30;;;12.80;99.90;;;;;;4992158;28;20030;-89
2023/08/28 06:19:05;;;;;;;38.05;31.00;;;12.90;99.90;;;;;;4992609;28;20022;-89
2023/08/28 06:21:31;;;;;;;36.58;31.20;;;13.10;99.90;;;;;;4990072;28;20046;-89
2023/08/28 06:23:56;;;;;;;40.60;31.20;;;13.30;99.90;;;;;;5003783;28;20030;-89
2023/08/28 06:26:22;;;;;;;35.80;28.40;;;13.60;99.90;;;;;;4989551;28;20033;-90
2023/08/28 06:28:47;;;;;;;36.42;28.40;;;13.70;99.90;;;;;;4984859;28;20027;-89
2023/08/28 06:31:13;;;;;;;31.17;27.13;;;14.00;99.90;;;;;;4994534;28;20023;-90
2023/08/28 06:33:38;;;;;;;28.92;25.90;;;14.20;99.90;;;;;;4988619;28;20041;-88
2023/08/28 06:36:04;;;;;;;32.78;26.70;;;14.40;99.90;;;;;;4991201;28;20022;-89
2023/08/28 06:38:29;;;;;;;30.27;23.88;;;14.50;99.90;;;;;;4991281;28;20033;-89
2023/08/28 06:40:55;;;;;;;28.92;23.63;;;14.70;99.90;;;;;;4987484;28;20388;-89
2023/08/28 06:43:21;;;;;;;26.50;21.63;;;14.90;99.90;;;;;;4993262;28;20026;-89
2023/08/28 06:45:46;;;;;;;28.35;21.70;;;15.00;99.90;;;;;;4989918;28;20026;-89
2023/08/28 06:48:12;;;;;;;25.83;20.58;;;15.10;99.90;;;;;;4992907;28;20026;-90
2023/08/28 06:50:38;;;;;;;23.45;20.10;;;15.30;99.90;;;;;;4991313;28;20077;-89
2023/08/28 06:53:04;;;;;;;20.75;18.55;;;15.40;99.90;;;;;;4988367;28;20057;-90
2023/08/28 06:55:32;;;;;;;19.88;17.77;;;15.60;99.90;;;;;;5007575;28;20057;-89
2023/08/28 06:57:58;;;;;;;25.77;19.13;;;15.70;99.90;;;;;;4992507;28;20574;-90
2023/08/28 07:00:23;;;;;;;20.88;18.58;;;15.80;99.90;;;;;;4987019;28;20121;-90
2023/08/28 07:02:49;;;;;;;19.83;17.73;;;16.00;99.90;;;;;;4982595;28;20106;-91
2023/08/28 07:05:15;;;;;;;19.35;16.17;;;16.10;99.90;;;;;;4990995;28;20027;-90
2023/08/28 07:07:40;;;;;;;19.42;16.88;;;16.20;99.90;;;;;;4991968;28;20057;-91
2023/08/28 07:10:06;;;;;;;19.67;14.75;;;16.40;99.90;;;;;;4991081;28;20022;-91
2023/08/28 07:12:33;;;;;;;21.10;15.70;;;16.40;99.90;;;;;;4990326;28;20034;-90
2023/08/28 07:15:20;;;;;;;18.20;14.27;;;16.50;99.90;;;;;;4989970;28;20027;-90
2023/08/28 07:17:45;;;;;;;17.02;14.98;;;16.60;99.90;;;;;;4991016;28;20034;-90
2023/08/28 07:20:11;;;;;;;17.10;13.70;;;16.60;99.90;;;;;;4980513;28;20042;-92
2023/08/28 07:22:37;;;;;;;15.70;14.07;;;16.80;99.90;;;;;;4981614;28;20409;-91
2023/08/28 07:25:03;;;;;;;14.98;13.02;;;17.00;99.90;;;;;;4989979;28;20034;-90
2023/08/28 07:27:28;;;;;;;14.70;11.43;;;17.20;99.90;;;;;;4988168;28;20033;-90
2023/08/28 07:29:55;;;;;;;13.15;11.75;;;17.30;99.90;;;;;;4986293;28;20026;-90
2023/08/28 07:32:20;;;;;;;13.25;11.85;;;17.30;99.90;;;;;;5001288;28;20042;-91
2023/08/28 07:34:46;;;;;;;12.68;10.73;;;17.30;99.90;;;;;;4987160;28;20026;-91
2023/08/28 07:37:11;;;;;;;14.57;9.88;;;17.20;99.90;;;;;;4990179;28;20041;-91
2023/08/28 07:39:37;;;;;;;11.95;10.55;;;17.10;99.90;;;;;;4988085;28;20517;-91
2023/08/28 07:42:03;;;;;;;16.02;11.68;;;17.10;99.90;;;;;;4991565;28;20061;-91
2023/08/28 07:44:28;;;;;;;16.73;13.15;;;17.00;99.90;;;;;;4992750;28;20078;-90
2023/08/28 07:46:54;;;;;;;15.00;12.63;;;17.00;99.90;;;;;;4988918;28;20470;-90
2023/08/28 07:49:20;;;;;;;14.55;12.13;;;17.10;99.90;;;;;;4994497;28;20037;-91
2023/08/28 07:51:46;;;;;;;15.85;12.75;;;17.10;99.90;;;;;;4991342;28;20030;-92
2023/08/28 07:54:40;;;;;;;14.73;13.23;;;17.20;99.90;;;;;;5013227;28;20090;-96
2023/08/28 07:57:07;;;;;;;18.33;13.25;;;17.40;99.90;;;;;;5013642;28;20040;-95
2023/08/28 07:59:32;;;;;;;16.50;11.90;;;17.50;99.90;;;;;;4995710;28;20109;-95
2023/08/28 08:01:58;;;;;;;15.57;11.77;;;17.50;99.90;;;;;;4995858;28;20137;-94
2023/08/28 08:04:25;;;;;;;14.55;11.73;;;17.50;99.90;;;;;;4992118;28;20033;-95
2023/08/28 08:06:50;;;;;;;14.73;11.60;;;17.60;99.90;;;;;;4995274;28;20026;-94
2023/08/28 08:09:16;;;;;;;13.20;11.23;;;17.70;99.90;;;;;;4995931;28;20034;-96
2023/08/28 08:11:42;;;;;;;12.93;11.55;;;17.80;99.90;;;;;;4996458;28;20164;-94
2023/08/28 08:14:07;;;;;;;11.85;10.73;;;17.80;99.90;;;;;;4998913;28;20072;-95
2023/08/28 08:16:33;;;;;;;14.20;10.60;;;18.00;99.90;;;;;;4981337;28;20031;-94
2023/08/28 08:18:59;;;;;;;12.00;10.70;;;18.20;99.90;;;;;;4993390;28;20120;-95
2023/08/28 08:21:24;;;;;;;10.85;9.70;;;18.40;99.90;;;;;;5005614;28;20084;-96
2023/08/28 08:23:50;;;;;;;12.23;9.02;;;18.50;99.90;;;;;;4997959;28;20030;-94
2023/08/28 08:26:15;;;;;;;8.88;7.63;;;18.60;99.90;;;;;;4998938;28;20021;-96
2023/08/28 08:28:41;;;;;;;9.35;7.32;;;18.70;99.90;;;;;;4999290;28;20030;-96
2023/08/28 08:31:07;;;;;;;7.07;6.25;;;18.80;99.90;;;;;;4999269;28;20025;-95
2023/08/28 08:33:33;;;;;;;7.28;5.93;;;18.90;99.90;;;;;;5000259;28;20045;-95
2023/08/28 08:35:58;;;;;;;7.57;5.63;;;19.00;99.90;;;;;;4997610;28;20030;-95
2023/08/28 08:38:24;;;;;;;7.03;4.82;;;19.10;99.90;;;;;;4998299;28;20076;-94
2023/08/28 08:40:52;;;;;;;5.25;4.20;;;19.20;99.90;;;;;;4998396;28;20076;-93
2023/08/28 08:43:18;;;;;;;5.88;3.75;;;19.30;99.90;;;;;;4998858;28;20022;-94
2023/08/28 08:45:44;;;;;;;6.63;3.65;;;19.50;99.90;;;;;;4994037;28;20049;-93
2023/08/28 08:48:16;;;;;;;3.85;2.40;;;19.60;99.90;;;;;;4993651;28;20494;-95
2023/08/28 08:50:43;;;;;;;;;;;19.70;99.90;;;;;;4999359;28;20084;-95
2023/08/28 08:53:17;;;;;;;2.97;2.40;;;19.70;99.90;;;;;;4991017;28;20417;-94
2023/08/28 08:55:47;;;;;;;3.28;2.92;;;19.70;99.90;;;;;;4973445;28;20093;-95
2023/08/28 08:58:15;;;;;;;7.75;3.03;;;19.70;99.90;;;;;;4985650;28;20018;-93
2023/08/28 09:00:43;;;;;;;5.88;2.55;;;19.70;99.90;;;;;;4976865;28;20197;-94
2023/08/28 09:03:09;;;;;;;2.88;1.73;;;19.70;99.90;;;;;;4980254;28;20471;-95
2023/08/28 09:05:36;;;;;;;3.50;1.58;;;19.50;99.90;;;;;;4987070;28;20035;-93
2023/08/28 09:08:05;;;;;;;2.40;0.93;;;19.50;99.90;;;;;;4992007;28;20121;-94
2023/08/28 09:10:31;;;;;;;1.90;1.10;;;19.50;99.90;;;;;;4987100;28;20071;-95
2023/08/28 09:12:57;;;;;;;2.38;1.70;;;19.60;99.90;;;;;;4989724;28;20027;-92
2023/08/28 09:15:26;;;;;;;4.03;1.73;;;19.90;99.90;;;;;;5004179;28;20129;-93
2023/08/28 09:17:52;;;;;;;2.10;1.33;;;20.20;99.90;;;;;;4989076;28;20031;-94
2023/08/28 09:20:21;;;;;;;3.72;1.58;;;20.50;99.90;;;;;;4994192;28;20049;-95
2023/08/28 09:22:49;;;;;;;2.28;1.17;;;20.80;99.90;;;;;;4996259;28;20085;-95
2023/08/28 09:25:19;;;;;;;3.17;1.15;;;20.90;99.90;;;;;;4992756;28;20035;-96
2023/08/28 09:27:46;;;;;;;1.95;1.30;;;20.90;99.90;;;;;;4992055;28;20053;-95
2023/08/28 09:30:36;;;;;;;4.07;1.60;;;20.70;99.90;;;;;;4994084;28;20033;-94
2023/08/28 09:33:07;;;;;;;2.92;1.45;;;20.60;99.90;;;;;;4994204;28;20026;-95
2023/08/28 09:35:38;;;;;;;3.05;1.25;;;20.40;99.90;;;;;;4992454;28;20030;-94
2023/08/28 09:38:03;;;;;;;3.88;1.20;;;20.30;99.90;;;;;;5009021;28;20026;-94
2023/08/28 09:40:36;;;;;;;3.05;1.60;;;20.10;99.90;;;;;;4991605;28;20034;-94
2023/08/28 09:43:12;;;;;;;3.10;1.40;;;20.00;99.90;;;;;;4990271;28;20030;-94
2023/08/28 09:45:38;;;;;;;3.92;1.70;;;20.00;99.90;;;;;;4989783;28;20109;-94
2023/08/28 09:48:05;;;;;;;3.33;1.10;;;19.90;99.90;;;;;;4992677;28;20030;-93
2023/08/28 09:50:32;;;;;;;1.90;0.80;;;19.80;99.90;;;;;;4987761;28;20041;-95
2023/08/28 09:53:13;;;;;;;9.07;1.60;;;19.80;99.90;;;;;;4989735;28;20125;-95
2023/08/28 09:55:48;;;;;;;2.75;1.10;;;19.90;99.90;;;;;;4995177;28;20037;-96
2023/08/28 09:58:14;;;;;;;3.03;0.90;;;20.10;99.90;;;;;;4994042;28;20072;-95
2023/08/28 10:00:40;;;;;;;2.75;0.88;;;20.40;99.90;;;;;;4988367;28;20042;-96
2023/08/28 10:03:11;;;;;;;8.52;1.50;;;20.70;99.90;;;;;;4993350;28;20057;-96
2023/08/28 10:05:44;;;;;;;3.22;1.40;;;20.90;99.90;;;;;;4990607;28;20026;-96
2023/08/28 10:08:11;;;;;;;2.83;1.13;;;21.10;99.90;;;;;;4982911;28;20113;-95
2023/08/28 10:10:39;;;;;;;4.25;1.75;;;21.10;99.90;;;;;;4990254;28;20376;-95
2023/08/28 10:13:07;;;;;;;3.50;1.40;;;20.90;99.90;;;;;;4998459;28;20017;-94
2023/08/28 10:15:38;;;;;;;3.72;1.52;;;20.70;99.90;;;;;;4980808;28;20467;-94
2023/08/28 10:18:11;;;;;;;3.90;1.20;;;20.40;99.90;;;;;;4992741;28;20545;-95
2023/08/28 10:20:37;;;;;;;2.00;0.90;;;20.10;99.90;;;;;;4981017;28;20046;-94
2023/08/28 10:23:03;;;;;;;4.35;1.30;;;20.00;99.90;;;;;;4991144;28;20037;-94
2023/08/28 10:25:30;;;;;;;2.22;0.82;;;20.00;99.90;;;;;;4983848;28;20034;-94
2023/08/28 10:27:57;;;;;;;3.47;0.95;;;20.10;99.90;;;;;;4979985;28;20026;-94
2023/08/28 10:30:26;;;;;;;4.40;0.90;;;20.20;99.90;;;;;;4981563;28;20050;-94
2023/08/28 10:32:55;;;;;;;1.17;0.40;;;20.20;99.90;;;;;;4991792;28;20022;-95
2023/08/28 10:35:22;;;;;;;1.38;0.45;;;20.30;99.90;;;;;;4989343;28;20092;-94
2023/08/28 10:37:49;;;;;;;3.75;1.15;;;20.40;99.90;;;;;;4973663;28;20022;-95
2023/08/28 10:40:17;;;;;;;1.42;0.50;;;20.40;99.90;;;;;;4994687;28;20030;-94
2023/08/28 10:42:44;;;;;;;2.60;0.50;;;20.40;99.90;;;;;;4992460;28;20050;-94
2023/08/28 10:45:09;;;;;;;1.13;0.50;;;20.50;99.90;;;;;;4991895;28;20081;-95
2023/08/28 10:47:37;;;;;;;1.55;0.55;;;20.70;99.90;;;;;;4987916;28;20034;-93
2023/08/28 10:50:07;;;;;;;1.73;0.70;;;20.70;99.90;;;;;;4987187;28;20399;-95
2023/08/28 10:52:33;;;;;;;1.98;0.98;;;20.90;99.90;;;;;;5005010;28;20027;-95
2023/08/28 10:55:06;;;;;;;2.63;0.80;;;21.00;99.90;;;;;;4988400;28;20518;-95
2023/08/28 10:57:34;;;;;;;2.28;1.05;;;21.20;99.90;;;;;;4976509;28;20031;-94
2023/08/28 11:00:14;;;;;;;2.50;0.70;;;21.30;99.90;;;;;;4989399;28;20115;-94
2023/08/28 11:03:08;;;;;;;2.80;0.90;;;21.30;99.90;;;;;;4989252;28;20030;-95
2023/08/28 11:05:35;;;;;;;4.32;0.70;;;21.20;99.90;;;;;;5007064;28;20050;-95
2023/08/28 11:08:04;;;;;;;2.03;0.80;;;21.10;99.90;;;;;;4991733;28;20034;-95
2023/08/28 11:10:31;;;;;;;1.02;0.60;;;21.30;99.90;;;;;;4991827;28;20077;-95
2023/08/28 11:13:03;;;;;;;1.33;0.70;;;21.40;99.90;;;;;;4991983;28;20037;-96
2023/08/28 11:15:39;;;;;;;2.10;0.70;;;21.70;99.90;;;;;;4992472;28;20026;-93
2023/08/28 11:18:26;;;;;;;2.25;0.60;;;21.80;99.90;;;;;;4979092;28;20034;-95
2023/08/28 11:21:00;;;;;;;2.45;0.98;;;22.00;99.90;;;;;;4984583;28;20041;-95
2023/08/28 11:23:34;;;;;;;1.83;0.80;;;22.10;99.90;;;;;;4988806;28;20023;-96
2023/08/28 11:26:06;;;;;;;2.25;0.50;;;22.20;99.90;;;;;;4985838;28;20033;-94
2023/08/28 11:28:45;;;;;;;0.73;0.30;;;22.30;99.90;;;;;;5003057;28;20030;-95
2023/08/28 11:31:11;;;;;;;1.10;0.30;;;22.30;99.90;;;;;;4992519;28;20034;-94
2023/08/28 11:33:42;;;;;;;1.17;0.32;;;22.30;99.90;;;;;;4989755;28;20031;-95
2023/08/28 11:36:19;;;;;;;0.80;0.20;;;22.30;99.90;;;;;;4990335;28;20023;-95
2023/08/28 11:38:49;;;;;;;2.05;0.20;;;22.20;99.90;;;;;;4983894;28;20502;-94
2023/08/28 11:41:16;;;;;;;1.13;0.22;;;22.40;99.90;;;;;;4989928;28;20039;-93
2023/08/28 11:43:44;;;;;;;1.20;0.60;;;22.40;99.90;;;;;;5003531;28;20046;-94
2023/08/28 11:46:13;;;;;;;2.15;0.70;;;22.50;99.90;;;;;;4994886;28;20077;-95
2023/08/28 11:48:45;;;;;;;0.70;0.30;;;22.60;99.90;;;;;;4999226;28;20036;-95
2023/08/28 11:51:12;;;;;;;0.52;0.38;;;22.70;99.90;;;;;;4995072;28;20040;-95
2023/08/28 11:53:42;;;;;;;1.00;0.40;;;22.80;99.90;;;;;;4992648;28;20077;-95
2023/08/28 11:56:14;;;;;;;1.55;0.60;;;22.90;99.90;;;;;;4991681;28;20105;-96
2023/08/28 11:58:41;;;;;;;1.25;0.52;;;22.90;99.90;;;;;;4996366;28;20034;-96
2023/08/28 12:01:08;;;;;;;1.98;0.70;;;22.70;99.90;;;;;;4995076;28;20039;-93
2023/08/28 12:03:37;;;;;;;2.38;1.00;;;22.50;99.90;;;;;;4991478;28;20114;-96
2023/08/28 12:06:06;;;;;;;1.63;0.55;;;22.40;99.90;;;;;;4996858;28;20069;-95
2023/08/28 12:08:34;;;;;;;1.23;0.45;;;22.40;99.90;;;;;;5000352;28;20065;-96
2023/08/28 12:11:00;;;;;;;2.65;0.70;;;22.40;99.90;;;;;;4998591;28;20018;-95
2023/08/28 12:13:25;;;;;;;1.45;0.60;;;22.50;99.90;;;;;;4995696;28;20026;-95
2023/08/28 12:15:51;;;;;;;1.10;0.40;;;22.40;99.90;;;;;;4997660;28;20018;-96
2023/08/28 12:18:17;;;;;;;1.88;0.75;;;22.30;99.90;;;;;;4997764;28;20026;-96
2023/08/28 12:20:46;;;;;;;1.40;0.50;;;22.30;99.90;;;;;;4996535;28;20173;-94
2023/08/28 12:23:13;;;;;;;0.80;0.40;;;22.30;99.90;;;;;;4998886;28;20027;-94
2023/08/28 12:25:41;;;;;;;1.10;0.30;;;22.30;99.90;;;;;;5000416;28;20037;-94
2023/08/28 12:28:09;;;;;;;1.88;0.40;;;22.50;99.90;;;;;;5006932;28;20026;-95
2023/08/28 12:30:39;;;;;;;0.93;0.30;;;22.70;99.90;;;;;;5007762;28;20061;-94
2023/08/28 12:33:06;;;;;;;2.10;0.30;;;22.80;99.80;;;;;;5007337;28;20037;-94
2023/08/28 12:35:40;;;;;;;1.17;0.30;;;23.00;99.90;;;;;;5007816;28;20023;-95
2023/08/28 12:38:05;;;;;;;1.70;0.40;;;23.10;99.60;;;;;;5006350;28;20026;-95
2023/08/28 12:40:36;;;;;;;1.02;0.40;;;23.20;99.10;;;;;;5008070;28;20038;-96